sensor_id;sensor_type;location;lat;lon;timestamp;temperature;humidity
45549;DHT22;31270;48.328;10.096;2023-12-07T00:01:28;1.40;99.90
45549;DHT22;31270;48.328;10.096;2023-12-07T00:03:54;1.40;99.90
45549;DHT22;31270;48.328;10.096;2023-12-07T00:06:19;1.40;99.90
45549;DHT22;31270;48.328;10.096;2023-12-07T00:08:45;1.40;99.90
45549;DHT22;31270;48.328;10.096;2023-12-07T00:11:10;1.40;99.90
45549;DHT22;31270;48.328;10.096;2023-12-07T00:13:36;1.40;99.90
45549;DHT22;31270;48.328;10.096;2023-12-07T00:16:01;1.40;99.90
45549;DHT22;31270;48.328;10.096;2023-12-07T00:18:27;1.40;99.90
45549;DHT22;31270;48.328;10.096;2023-12-07T00:20:53;1.40;99.90
45549;DHT22;31270;48.328;10.096;2023-12-07T00:23:18;1.40;99.90
45549;DHT22;31270;48.328;10.096;2023-12-07T00:25:44;1.40;99.90
45549;DHT22;31270;48.328;10.096;2023-12-07T00:28:11;1.40;99.90
45549;DHT22;31270;48.328;10.096;2023-12-07T00:30:37;1.40;99.90
45549;DHT22;31270;48.328;10.096;2023-12-07T00:33:02;1.40;99.90
45549;DHT22;31270;48.328;10.096;2023-12-07T00:35:28;1.40;99.90
45549;DHT22;31270;48.328;10.096;2023-12-07T00:37:55;1.40;99.90
45549;DHT22;31270;48.328;10.096;2023-12-07T00:40:21;1.40;99.90
45549;DHT22;31270;48.328;10.096;2023-12-07T00:42:47;1.40;99.90
45549;DHT22;31270;48.328;10.096;2023-12-07T00:45:13;1.40;99.90
45549;DHT22;31270;48.328;10.096;2023-12-07T00:47:39;1.50;99.90
45549;DHT22;31270;48.328;10.096;2023-12-07T00:50:05;1.40;99.90
45549;DHT22;31270;48.328;10.096;2023-12-07T00:52:31;1.40;99.90
45549;DHT22;31270;48.328;10.096;2023-12-07T00:54:56;1.50;99.90
45549;DHT22;31270;48.328;10.096;2023-12-07T00:57:22;1.50;99.90
45549;DHT22;31270;48.328;10.096;2023-12-07T00:59:48;1.50;99.90
45549;DHT22;31270;48.328;10.096;2023-12-07T01:02:13;1.40;99.90
45549;DHT22;31270;48.328;10.096;2023-12-07T01:04:39;1.40;99.90
45549;DHT22;31270;48.328;10.096;2023-12-07T01:07:05;1.40;99.90
45549;DHT22;31270;48.328;10.096;2023-12-07T01:09:30;1.40;99.90
45549;DHT22;31270;48.328;10.096;2023-12-07T01:11:56;1.40;99.90
45549;DHT22;31270;48.328;10.096;2023-12-07T01:14:23;1.40;99.90
45549;DHT22;31270;48.328;10.096;2023-12-07T01:16:49;1.40;99.90
45549;DHT22;31270;48.328;10.096;2023-12-07T01:19:15;1.30;99.90
45549;DHT22;31270;48.328;10.096;2023-12-07T01:21:41;1.30;99.90
45549;DHT22;31270;48.328;10.096;2023-12-07T01:24:08;1.20;99.90
45549;DHT22;31270;48.328;10.096;2023-12-07T01:26:33;1.20;99.90
45549;DHT22;31270;48.328;10.096;2023-12-07T01:28:59;1.10;99.90
45549;DHT22;31270;48.328;10.096;2023-12-07T01:31:24;1.10;99.90
45549;DHT22;31270;48.328;10.096;2023-12-07T01:33:50;1.10;99.90
45549;DHT22;31270;48.328;10.096;2023-12-07T01:36:16;1.10;99.90
45549;DHT22;31270;48.328;10.096;2023-12-07T01:38:41;1.10;99.90
45549;DHT22;31270;48.328;10.096;2023-12-07T01:41:09;1.10;99.90
45549;DHT22;31270;48.328;10.096;2023-12-07T01:43:34;1.10;99.90
45549;DHT22;31270;48.328;10.096;2023-12-07T01:46:00;1.00;99.90
45549;DHT22;31270;48.328;10.096;2023-12-07T01:48:27;1.10;99.90
45549;DHT22;31270;48.328;10.096;2023-12-07T01:50:55;1.00;99.90
45549;DHT22;31270;48.328;10.096;2023-12-07T01:53:22;1.00;99.90
45549;DHT22;31270;48.328;10.096;2023-12-07T01:55:48;1.00;99.90
45549;DHT22;31270;48.328;10.096;2023-12-07T01:58:15;1.00;99.90
45549;DHT22;31270;48.328;10.096;2023-12-07T02:00:42;1.00;99.90
45549;DHT22;31270;48.328;10.096;2023-12-07T02:03:08;1.00;99.90
45549;DHT22;31270;48.328;10.096;2023-12-07T02:05:35;1.00;99.90
45549;DHT22;31270;48.328;10.096;2023-12-07T02:08:01;1.00;99.90
45549;DHT22;31270;48.328;10.096;2023-12-07T02:10:26;1.00;99.90
45549;DHT22;31270;48.328;10.096;2023-12-07T02:12:52;1.00;99.90
45549;DHT22;31270;48.328;10.096;2023-12-07T02:15:19;1.00;99.90
45549;DHT22;31270;48.328;10.096;2023-12-07T02:20:28;0.90;99.90
45549;DHT22;31270;48.328;10.096;2023-12-07T02:23:00;0.90;99.90
45549;DHT22;31270;48.328;10.096;2023-12-07T02:25:39;0.90;99.90
45549;DHT22;31270;48.328;10.096;2023-12-07T02:28:06;0.90;99.90
45549;DHT22;31270;48.328;10.096;2023-12-07T02:30:32;0.90;99.90
45549;DHT22;31270;48.328;10.096;2023-12-07T02:32:58;0.90;99.90
45549;DHT22;31270;48.328;10.096;2023-12-07T02:35:24;0.80;99.90
45549;DHT22;31270;48.328;10.096;2023-12-07T02:37:51;0.80;99.90
45549;DHT22;31270;48.328;10.096;2023-12-07T02:40:22;0.80;99.90
45549;DHT22;31270;48.328;10.096;2023-12-07T02:42:49;0.70;99.90
45549;DHT22;31270;48.328;10.096;2023-12-07T02:45:15;0.70;99.90
45549;DHT22;31270;48.328;10.096;2023-12-07T02:47:41;0.70;99.90
45549;DHT22;31270;48.328;10.096;2023-12-07T02:50:09;0.80;99.90
45549;DHT22;31270;48.328;10.096;2023-12-07T02:52:35;0.70;99.90
45549;DHT22;31270;48.328;10.096;2023-12-07T02:55:01;0.70;99.90
45549;DHT22;31270;48.328;10.096;2023-12-07T02:57:30;0.70;99.90
45549;DHT22;31270;48.328;10.096;2023-12-07T02:59:56;0.70;99.90
45549;DHT22;31270;48.328;10.096;2023-12-07T03:02:22;0.70;99.90
45549;DHT22;31270;48.328;10.096;2023-12-07T03:04:48;0.60;99.90
45549;DHT22;31270;48.328;10.096;2023-12-07T03:07:13;0.60;99.90
45549;DHT22;31270;48.328;10.096;2023-12-07T03:09:39;0.70;99.90
45549;DHT22;31270;48.328;10.096;2023-12-07T03:12:05;0.70;99.90
45549;DHT22;31270;48.328;10.096;2023-12-07T03:14:31;0.70;99.90
45549;DHT22;31270;48.328;10.096;2023-12-07T03:16:57;0.70;99.90
45549;DHT22;31270;48.328;10.096;2023-12-07T03:19:22;0.70;99.90
45549;DHT22;31270;48.328;10.096;2023-12-07T03:21:48;0.60;99.90
45549;DHT22;31270;48.328;10.096;2023-12-07T03:24:14;0.50;99.90
45549;DHT22;31270;48.328;10.096;2023-12-07T03:26:39;0.60;99.90
45549;DHT22;31270;48.328;10.096;2023-12-07T03:29:05;0.50;99.90
45549;DHT22;31270;48.328;10.096;2023-12-07T03:31:31;0.40;99.90
45549;DHT22;31270;48.328;10.096;2023-12-07T03:33:57;0.40;99.90
45549;DHT22;31270;48.328;10.096;2023-12-07T03:36:23;0.40;99.90
45549;DHT22;31270;48.328;10.096;2023-12-07T03:38:49;0.30;99.90
45549;DHT22;31270;48.328;10.096;2023-12-07T03:41:15;0.40;99.90
45549;DHT22;31270;48.328;10.096;2023-12-07T03:43:40;0.40;99.90
45549;DHT22;31270;48.328;10.096;2023-12-07T03:46:07;0.30;99.90
45549;DHT22;31270;48.328;10.096;2023-12-07T03:48:33;0.40;99.90
45549;DHT22;31270;48.328;10.096;2023-12-07T03:51:00;0.30;99.90
45549;DHT22;31270;48.328;10.096;2023-12-07T03:53:26;0.30;99.90
45549;DHT22;31270;48.328;10.096;2023-12-07T03:55:52;0.20;99.90
45549;DHT22;31270;48.328;10.096;2023-12-07T03:58:17;0.10;99.90
45549;DHT22;31270;48.328;10.096;2023-12-07T04:00:44;0.10;99.90
45549;DHT22;31270;48.328;10.096;2023-12-07T04:03:10;0.00;99.90
45549;DHT22;31270;48.328;10.096;2023-12-07T04:05:35;0.00;99.90
45549;DHT22;31270;48.328;10.096;2023-12-07T04:08:01;0.00;99.90
45549;DHT22;31270;48.328;10.096;2023-12-07T04:10:27;0.00;99.90
45549;DHT22;31270;48.328;10.096;2023-12-07T04:12:52;-0.10;99.90
45549;DHT22;31270;48.328;10.096;2023-12-07T04:15:19;-0.20;99.90
45549;DHT22;31270;48.328;10.096;2023-12-07T04:17:45;-0.20;99.90
45549;DHT22;31270;48.328;10.096;2023-12-07T04:20:11;-0.20;99.90
45549;DHT22;31270;48.328;10.096;2023-12-07T04:22:37;-0.20;99.90
45549;DHT22;31270;48.328;10.096;2023-12-07T04:25:03;-0.20;99.90
45549;DHT22;31270;48.328;10.096;2023-12-07T04:27:28;-0.30;99.90
45549;DHT22;31270;48.328;10.096;2023-12-07T04:29:54;-0.30;99.90
45549;DHT22;31270;48.328;10.096;2023-12-07T04:32:20;-0.30;99.90
45549;DHT22;31270;48.328;10.096;2023-12-07T04:34:45;-0.30;99.90
45549;DHT22;31270;48.328;10.096;2023-12-07T04:37:11;-0.30;99.90
45549;DHT22;31270;48.328;10.096;2023-12-07T04:39:36;-0.20;99.90
45549;DHT22;31270;48.328;10.096;2023-12-07T04:42:02;-0.20;99.90
45549;DHT22;31270;48.328;10.096;2023-12-07T04:44:28;-0.20;99.90
45549;DHT22;31270;48.328;10.096;2023-12-07T04:46:54;-0.20;99.90
45549;DHT22;31270;48.328;10.096;2023-12-07T04:49:19;-0.30;99.90
45549;DHT22;31270;48.328;10.096;2023-12-07T04:51:45;-0.30;99.90
45549;DHT22;31270;48.328;10.096;2023-12-07T04:54:12;-0.30;99.90
45549;DHT22;31270;48.328;10.096;2023-12-07T04:56:43;-0.40;99.90
45549;DHT22;31270;48.328;10.096;2023-12-07T04:59:11;-0.40;99.90
45549;DHT22;31270;48.328;10.096;2023-12-07T05:01:37;-0.30;99.90
45549;DHT22;31270;48.328;10.096;2023-12-07T05:04:04;-0.30;99.90
45549;DHT22;31270;48.328;10.096;2023-12-07T05:06:30;-0.30;99.90
45549;DHT22;31270;48.328;10.096;2023-12-07T05:08:56;-0.20;99.90
45549;DHT22;31270;48.328;10.096;2023-12-07T05:11:22;-0.20;99.90
45549;DHT22;31270;48.328;10.096;2023-12-07T05:13:47;-0.20;99.90
45549;DHT22;31270;48.328;10.096;2023-12-07T05:16:13;-0.20;99.90
45549;DHT22;31270;48.328;10.096;2023-12-07T05:18:39;-0.30;99.90
45549;DHT22;31270;48.328;10.096;2023-12-07T05:21:05;-0.30;99.90
45549;DHT22;31270;48.328;10.096;2023-12-07T05:23:31;-0.30;99.90
45549;DHT22;31270;48.328;10.096;2023-12-07T05:25:57;-0.30;99.90
45549;DHT22;31270;48.328;10.096;2023-12-07T05:28:22;-0.30;99.90
45549;DHT22;31270;48.328;10.096;2023-12-07T05:30:49;-0.30;99.90
45549;DHT22;31270;48.328;10.096;2023-12-07T05:33:15;-0.30;99.90
45549;DHT22;31270;48.328;10.096;2023-12-07T05:35:41;-0.40;99.90
45549;DHT22;31270;48.328;10.096;2023-12-07T05:38:06;-0.40;99.90
45549;DHT22;31270;48.328;10.096;2023-12-07T05:40:32;-0.40;99.90
45549;DHT22;31270;48.328;10.096;2023-12-07T05:42:59;-0.40;99.90
45549;DHT22;31270;48.328;10.096;2023-12-07T05:45:25;-0.40;99.90
45549;DHT22;31270;48.328;10.096;2023-12-07T05:47:51;-0.40;99.90
45549;DHT22;31270;48.328;10.096;2023-12-07T05:50:17;-0.40;99.90
45549;DHT22;31270;48.328;10.096;2023-12-07T05:52:43;-0.50;99.90
45549;DHT22;31270;48.328;10.096;2023-12-07T05:55:09;-0.50;99.90
45549;DHT22;31270;48.328;10.096;2023-12-07T05:57:35;-0.50;99.90
45549;DHT22;31270;48.328;10.096;2023-12-07T06:00:01;-0.50;99.90
45549;DHT22;31270;48.328;10.096;2023-12-07T06:02:26;-0.40;99.90
45549;DHT22;31270;48.328;10.096;2023-12-07T06:04:52;-0.50;99.90
45549;DHT22;31270;48.328;10.096;2023-12-07T06:07:18;-0.50;99.90
45549;DHT22;31270;48.328;10.096;2023-12-07T06:09:43;-0.60;99.90
45549;DHT22;31270;48.328;10.096;2023-12-07T06:12:09;-0.60;99.90
45549;DHT22;31270;48.328;10.096;2023-12-07T06:14:35;-0.70;99.90
45549;DHT22;31270;48.328;10.096;2023-12-07T06:17:01;-0.70;99.90
45549;DHT22;31270;48.328;10.096;2023-12-07T06:19:26;-0.60;99.90
45549;DHT22;31270;48.328;10.096;2023-12-07T06:21:52;-0.70;99.90
45549;DHT22;31270;48.328;10.096;2023-12-07T06:24:18;-0.80;99.90
45549;DHT22;31270;48.328;10.096;2023-12-07T06:26:43;-0.70;99.90
45549;DHT22;31270;48.328;10.096;2023-12-07T06:29:09;-0.80;99.90
45549;DHT22;31270;48.328;10.096;2023-12-07T06:31:44;-0.90;99.90
45549;DHT22;31270;48.328;10.096;2023-12-07T06:34:10;-0.90;99.90
45549;DHT22;31270;48.328;10.096;2023-12-07T06:36:36;-0.90;99.90
45549;DHT22;31270;48.328;10.096;2023-12-07T06:39:02;-0.80;99.90
45549;DHT22;31270;48.328;10.096;2023-12-07T06:41:30;-0.90;99.90
45549;DHT22;31270;48.328;10.096;2023-12-07T06:43:56;-1.00;99.90
45549;DHT22;31270;48.328;10.096;2023-12-07T06:46:22;-1.00;99.90
45549;DHT22;31270;48.328;10.096;2023-12-07T06:48:47;-1.00;99.90
45549;DHT22;31270;48.328;10.096;2023-12-07T06:51:13;-1.00;99.90
45549;DHT22;31270;48.328;10.096;2023-12-07T06:53:40;-1.10;99.90
45549;DHT22;31270;48.328;10.096;2023-12-07T06:56:07;-1.20;99.90
45549;DHT22;31270;48.328;10.096;2023-12-07T06:58:33;-1.20;99.90
45549;DHT22;31270;48.328;10.096;2023-12-07T07:00:59;-1.30;99.90
45549;DHT22;31270;48.328;10.096;2023-12-07T07:03:24;-1.20;99.90
45549;DHT22;31270;48.328;10.096;2023-12-07T07:05:50;-1.20;99.90
45549;DHT22;31270;48.328;10.096;2023-12-07T07:08:16;-1.20;99.90
45549;DHT22;31270;48.328;10.096;2023-12-07T07:10:43;-1.20;99.90
45549;DHT22;31270;48.328;10.096;2023-12-07T07:13:09;-1.20;99.90
45549;DHT22;31270;48.328;10.096;2023-12-07T07:15:35;-1.20;99.90
45549;DHT22;31270;48.328;10.096;2023-12-07T07:18:01;-1.20;99.90
45549;DHT22;31270;48.328;10.096;2023-12-07T07:20:29;-1.20;99.90
45549;DHT22;31270;48.328;10.096;2023-12-07T07:22:55;-1.10;99.90
45549;DHT22;31270;48.328;10.096;2023-12-07T07:25:20;-1.20;99.90
45549;DHT22;31270;48.328;10.096;2023-12-07T07:27:52;-1.10;99.90
45549;DHT22;31270;48.328;10.096;2023-12-07T07:30:20;-1.10;99.90
45549;DHT22;31270;48.328;10.096;2023-12-07T07:32:46;-1.10;99.90
45549;DHT22;31270;48.328;10.096;2023-12-07T07:35:12;-1.20;99.90
45549;DHT22;31270;48.328;10.096;2023-12-07T07:37:41;-1.00;99.90
45549;DHT22;31270;48.328;10.096;2023-12-07T07:40:10;-1.10;99.90
45549;DHT22;31270;48.328;10.096;2023-12-07T07:42:38;-1.00;99.90
45549;DHT22;31270;48.328;10.096;2023-12-07T07:45:09;-1.00;99.90
45549;DHT22;31270;48.328;10.096;2023-12-07T07:47:35;-1.00;99.90
45549;DHT22;31270;48.328;10.096;2023-12-07T07:50:01;-1.00;99.90
45549;DHT22;31270;48.328;10.096;2023-12-07T07:52:32;-0.90;99.90
45549;DHT22;31270;48.328;10.096;2023-12-07T07:54:58;-0.90;99.90
45549;DHT22;31270;48.328;10.096;2023-12-07T07:57:24;-0.80;99.90
45549;DHT22;31270;48.328;10.096;2023-12-07T07:59:50;-0.70;99.90
45549;DHT22;31270;48.328;10.096;2023-12-07T08:02:16;-0.70;99.90
45549;DHT22;31270;48.328;10.096;2023-12-07T08:04:42;-0.70;99.90
45549;DHT22;31270;48.328;10.096;2023-12-07T08:07:07;-0.70;99.90
45549;DHT22;31270;48.328;10.096;2023-12-07T08:09:36;-0.60;99.90
45549;DHT22;31270;48.328;10.096;2023-12-07T08:12:02;-0.50;99.90
45549;DHT22;31270;48.328;10.096;2023-12-07T08:14:30;-0.40;99.90
45549;DHT22;31270;48.328;10.096;2023-12-07T08:16:56;-0.40;99.90
45549;DHT22;31270;48.328;10.096;2023-12-07T08:19:21;-0.40;99.90
45549;DHT22;31270;48.328;10.096;2023-12-07T08:21:47;-0.30;99.90
45549;DHT22;31270;48.328;10.096;2023-12-07T08:24:14;-0.30;99.90
45549;DHT22;31270;48.328;10.096;2023-12-07T08:26:39;-0.30;99.90
45549;DHT22;31270;48.328;10.096;2023-12-07T08:29:06;-0.30;99.90
45549;DHT22;31270;48.328;10.096;2023-12-07T08:31:32;-0.20;99.90
45549;DHT22;31270;48.328;10.096;2023-12-07T08:33:57;-0.10;99.90
45549;DHT22;31270;48.328;10.096;2023-12-07T08:36:24;-0.10;99.90
45549;DHT22;31270;48.328;10.096;2023-12-07T08:38:50;-0.10;99.90
45549;DHT22;31270;48.328;10.096;2023-12-07T08:41:16;0.00;99.90
45549;DHT22;31270;48.328;10.096;2023-12-07T08:43:41;0.10;99.90
45549;DHT22;31270;48.328;10.096;2023-12-07T08:46:07;0.10;99.90
45549;DHT22;31270;48.328;10.096;2023-12-07T08:48:33;0.10;99.90
45549;DHT22;31270;48.328;10.096;2023-12-07T08:50:59;0.10;99.90
45549;DHT22;31270;48.328;10.096;2023-12-07T08:53:25;0.20;99.90
45549;DHT22;31270;48.328;10.096;2023-12-07T08:55:52;0.20;99.90
45549;DHT22;31270;48.328;10.096;2023-12-07T08:58:18;0.20;99.90
45549;DHT22;31270;48.328;10.096;2023-12-07T09:00:44;0.20;99.90
45549;DHT22;31270;48.328;10.096;2023-12-07T09:03:09;0.30;99.90
45549;DHT22;31270;48.328;10.096;2023-12-07T09:05:35;0.30;99.90
45549;DHT22;31270;48.328;10.096;2023-12-07T09:08:04;0.40;99.90
45549;DHT22;31270;48.328;10.096;2023-12-07T09:10:31;0.50;99.90
45549;DHT22;31270;48.328;10.096;2023-12-07T09:12:56;0.50;99.90
45549;DHT22;31270;48.328;10.096;2023-12-07T09:15:22;0.60;99.90
45549;DHT22;31270;48.328;10.096;2023-12-07T09:17:48;0.60;99.90
45549;DHT22;31270;48.328;10.096;2023-12-07T09:20:14;0.60;99.90
45549;DHT22;31270;48.328;10.096;2023-12-07T09:22:44;0.70;99.90
45549;DHT22;31270;48.328;10.096;2023-12-07T09:25:10;0.70;99.90
45549;DHT22;31270;48.328;10.096;2023-12-07T09:27:38;0.80;99.90
45549;DHT22;31270;48.328;10.096;2023-12-07T09:30:07;0.80;99.90
45549;DHT22;31270;48.328;10.096;2023-12-07T09:32:37;0.90;99.90
45549;DHT22;31270;48.328;10.096;2023-12-07T09:35:07;0.90;99.90
45549;DHT22;31270;48.328;10.096;2023-12-07T09:37:34;1.00;99.90
45549;DHT22;31270;48.328;10.096;2023-12-07T09:40:00;1.10;99.90
45549;DHT22;31270;48.328;10.096;2023-12-07T09:42:26;1.10;99.90
45549;DHT22;31270;48.328;10.096;2023-12-07T09:44:53;1.10;99.90
45549;DHT22;31270;48.328;10.096;2023-12-07T09:47:23;1.10;99.90
45549;DHT22;31270;48.328;10.096;2023-12-07T09:49:50;1.20;99.90
45549;DHT22;31270;48.328;10.096;2023-12-07T09:52:16;1.20;99.90
45549;DHT22;31270;48.328;10.096;2023-12-07T09:54:45;1.20;99.90
45549;DHT22;31270;48.328;10.096;2023-12-07T09:57:10;1.20;99.90
45549;DHT22;31270;48.328;10.096;2023-12-07T09:59:37;1.30;99.90
45549;DHT22;31270;48.328;10.096;2023-12-07T10:02:07;1.20;99.90
45549;DHT22;31270;48.328;10.096;2023-12-07T10:04:34;1.30;99.90
45549;DHT22;31270;48.328;10.096;2023-12-07T10:07:01;1.30;99.90
45549;DHT22;31270;48.328;10.096;2023-12-07T10:09:27;1.30;99.90
45549;DHT22;31270;48.328;10.096;2023-12-07T10:12:05;1.20;99.90
45549;DHT22;31270;48.328;10.096;2023-12-07T10:14:32;1.10;99.90
45549;DHT22;31270;48.328;10.096;2023-12-07T10:16:59;1.10;99.90
45549;DHT22;31270;48.328;10.096;2023-12-07T10:19:25;1.20;99.90
45549;DHT22;31270;48.328;10.096;2023-12-07T10:21:53;1.30;99.90
45549;DHT22;31270;48.328;10.096;2023-12-07T10:24:21;1.40;99.90
45549;DHT22;31270;48.328;10.096;2023-12-07T10:26:48;1.50;99.90
45549;DHT22;31270;48.328;10.096;2023-12-07T10:29:13;1.60;99.90
45549;DHT22;31270;48.328;10.096;2023-12-07T10:31:39;1.70;99.90
45549;DHT22;31270;48.328;10.096;2023-12-07T10:34:05;1.70;99.90
45549;DHT22;31270;48.328;10.096;2023-12-07T10:36:31;1.70;99.90
45549;DHT22;31270;48.328;10.096;2023-12-07T10:38:58;1.70;99.90
45549;DHT22;31270;48.328;10.096;2023-12-07T10:41:24;1.60;99.90
45549;DHT22;31270;48.328;10.096;2023-12-07T10:43:57;1.60;99.90
45549;DHT22;31270;48.328;10.096;2023-12-07T10:46:25;1.60;99.90
45549;DHT22;31270;48.328;10.096;2023-12-07T10:49:03;1.70;99.90
45549;DHT22;31270;48.328;10.096;2023-12-07T10:51:37;1.60;99.90
45549;DHT22;31270;48.328;10.096;2023-12-07T10:54:04;1.70;99.90
45549;DHT22;31270;48.328;10.096;2023-12-07T10:56:43;1.80;99.90
45549;DHT22;31270;48.328;10.096;2023-12-07T10:59:11;1.80;99.90
45549;DHT22;31270;48.328;10.096;2023-12-07T11:01:42;1.90;99.90
45549;DHT22;31270;48.328;10.096;2023-12-07T11:04:13;2.00;99.90
45549;DHT22;31270;48.328;10.096;2023-12-07T11:06:45;2.00;99.90
45549;DHT22;31270;48.328;10.096;2023-12-07T11:09:16;2.00;99.90
45549;DHT22;31270;48.328;10.096;2023-12-07T11:12:06;2.10;99.90
45549;DHT22;31270;48.328;10.096;2023-12-07T11:14:34;2.20;99.90
45549;DHT22;31270;48.328;10.096;2023-12-07T11:17:00;2.20;99.90
45549;DHT22;31270;48.328;10.096;2023-12-07T11:22:12;2.20;99.90
45549;DHT22;31270;48.328;10.096;2023-12-07T11:24:55;2.20;99.90
45549;DHT22;31270;48.328;10.096;2023-12-07T11:27:23;2.20;99.90
45549;DHT22;31270;48.328;10.096;2023-12-07T11:29:49;2.20;99.90
45549;DHT22;31270;48.328;10.096;2023-12-07T11:32:18;2.20;99.90
45549;DHT22;31270;48.328;10.096;2023-12-07T11:34:44;2.20;99.90
45549;DHT22;31270;48.328;10.096;2023-12-07T11:37:13;2.20;99.90
45549;DHT22;31270;48.328;10.096;2023-12-07T11:39:40;2.30;99.90
45549;DHT22;31270;48.328;10.096;2023-12-07T11:42:16;2.30;99.90
45549;DHT22;31270;48.328;10.096;2023-12-07T11:44:43;2.30;99.90
45549;DHT22;31270;48.328;10.096;2023-12-07T11:47:16;2.40;99.90
45549;DHT22;31270;48.328;10.096;2023-12-07T11:49:43;2.40;99.90
45549;DHT22;31270;48.328;10.096;2023-12-07T11:52:21;2.40;99.90
45549;DHT22;31270;48.328;10.096;2023-12-07T11:54:47;2.40;99.90
45549;DHT22;31270;48.328;10.096;2023-12-07T11:57:14;2.40;99.90
45549;DHT22;31270;48.328;10.096;2023-12-07T11:59:40;2.50;99.90
45549;DHT22;31270;48.328;10.096;2023-12-07T12:02:06;2.50;99.90
45549;DHT22;31270;48.328;10.096;2023-12-07T12:04:32;2.60;99.90
45549;DHT22;31270;48.328;10.096;2023-12-07T12:06:57;2.50;99.90
45549;DHT22;31270;48.328;10.096;2023-12-07T12:09:26;2.60;99.90
45549;DHT22;31270;48.328;10.096;2023-12-07T12:11:56;2.50;99.90
45549;DHT22;31270;48.328;10.096;2023-12-07T12:14:29;2.50;99.90
45549;DHT22;31270;48.328;10.096;2023-12-07T12:16:54;2.50;99.90
45549;DHT22;31270;48.328;10.096;2023-12-07T12:19:23;2.50;99.90
45549;DHT22;31270;48.328;10.096;2023-12-07T12:21:54;2.50;99.90
45549;DHT22;31270;48.328;10.096;2023-12-07T12:24:20;2.50;99.90
45549;DHT22;31270;48.328;10.096;2023-12-07T12:26:46;2.60;99.90
45549;DHT22;31270;48.328;10.096;2023-12-07T12:29:13;2.60;99.90
45549;DHT22;31270;48.328;10.096;2023-12-07T12:31:39;2.60;99.90
45549;DHT22;31270;48.328;10.096;2023-12-07T12:34:07;2.50;99.90
45549;DHT22;31270;48.328;10.096;2023-12-07T12:36:34;2.50;99.90
45549;DHT22;31270;48.328;10.096;2023-12-07T12:39:00;2.50;99.90
45549;DHT22;31270;48.328;10.096;2023-12-07T12:41:27;2.50;99.90
45549;DHT22;31270;48.328;10.096;2023-12-07T12:43:56;2.50;99.90
45549;DHT22;31270;48.328;10.096;2023-12-07T12:46:25;2.50;99.90
45549;DHT22;31270;48.328;10.096;2023-12-07T12:48:59;2.50;99.90
45549;DHT22;31270;48.328;10.096;2023-12-07T12:51:26;2.50;99.90
45549;DHT22;31270;48.328;10.096;2023-12-07T12:53:52;2.50;99.90
45549;DHT22;31270;48.328;10.096;2023-12-07T12:56:20;2.50;99.90
45549;DHT22;31270;48.328;10.096;2023-12-07T12:58:50;2.50;99.90
45549;DHT22;31270;48.328;10.096;2023-12-07T13:01:17;2.40;99.90
45549;DHT22;31270;48.328;10.096;2023-12-07T13:03:44;2.40;99.90
45549;DHT22;31270;48.328;10.096;2023-12-07T13:06:11;2.30;99.90
45549;DHT22;31270;48.328;10.096;2023-12-07T13:08:37;2.30;99.90
45549;DHT22;31270;48.328;10.096;2023-12-07T13:11:03;2.40;99.90
45549;DHT22;31270;48.328;10.096;2023-12-07T13:13:29;2.40;99.90
45549;DHT22;31270;48.328;10.096;2023-12-07T13:15:55;2.40;99.90
45549;DHT22;31270;48.328;10.096;2023-12-07T13:18:20;2.40;99.90
45549;DHT22;31270;48.328;10.096;2023-12-07T13:20:46;2.40;99.90
45549;DHT22;31270;48.328;10.096;2023-12-07T13:23:12;2.30;99.90
45549;DHT22;31270;48.328;10.096;2023-12-07T13:25:37;2.30;99.90
45549;DHT22;31270;48.328;10.096;2023-12-07T13:28:06;2.20;99.90
45549;DHT22;31270;48.328;10.096;2023-12-07T13:30:33;2.10;99.90
45549;DHT22;31270;48.328;10.096;2023-12-07T13:33:01;2.10;99.90
45549;DHT22;31270;48.328;10.096;2023-12-07T13:35:27;2.00;99.90
45549;DHT22;31270;48.328;10.096;2023-12-07T13:37:53;1.90;99.90
45549;DHT22;31270;48.328;10.096;2023-12-07T13:40:19;2.00;99.90
45549;DHT22;31270;48.328;10.096;2023-12-07T13:42:48;2.00;99.90
45549;DHT22;31270;48.328;10.096;2023-12-07T13:45:14;1.90;99.90
45549;DHT22;31270;48.328;10.096;2023-12-07T13:47:41;2.00;99.90
45549;DHT22;31270;48.328;10.096;2023-12-07T13:50:07;1.90;99.90
45549;DHT22;31270;48.328;10.096;2023-12-07T13:52:32;2.00;99.90
45549;DHT22;31270;48.328;10.096;2023-12-07T13:54:58;2.00;99.90
45549;DHT22;31270;48.328;10.096;2023-12-07T13:57:24;1.90;99.90
45549;DHT22;31270;48.328;10.096;2023-12-07T13:59:51;1.90;99.90
45549;DHT22;31270;48.328;10.096;2023-12-07T14:02:16;1.90;99.90
45549;DHT22;31270;48.328;10.096;2023-12-07T14:04:42;1.90;99.90
45549;DHT22;31270;48.328;10.096;2023-12-07T14:07:13;1.90;99.90
45549;DHT22;31270;48.328;10.096;2023-12-07T14:09:45;1.90;99.90
45549;DHT22;31270;48.328;10.096;2023-12-07T14:12:12;1.90;99.90
45549;DHT22;31270;48.328;10.096;2023-12-07T14:14:40;1.80;99.90
45549;DHT22;31270;48.328;10.096;2023-12-07T14:17:06;1.80;99.90
45549;DHT22;31270;48.328;10.096;2023-12-07T14:19:32;1.80;99.90
45549;DHT22;31270;48.328;10.096;2023-12-07T14:21:57;1.80;99.90
45549;DHT22;31270;48.328;10.096;2023-12-07T14:24:25;1.80;99.90
45549;DHT22;31270;48.328;10.096;2023-12-07T14:26:52;1.80;99.90
45549;DHT22;31270;48.328;10.096;2023-12-07T14:29:18;1.80;99.90
45549;DHT22;31270;48.328;10.096;2023-12-07T14:31:47;1.70;99.90
45549;DHT22;31270;48.328;10.096;2023-12-07T14:34:13;1.70;99.90
45549;DHT22;31270;48.328;10.096;2023-12-07T14:36:40;1.70;99.90
45549;DHT22;31270;48.328;10.096;2023-12-07T14:39:07;1.60;99.90
45549;DHT22;31270;48.328;10.096;2023-12-07T14:41:33;1.60;99.90
45549;DHT22;31270;48.328;10.096;2023-12-07T14:43:59;1.70;99.90
45549;DHT22;31270;48.328;10.096;2023-12-07T14:46:25;1.70;99.90
45549;DHT22;31270;48.328;10.096;2023-12-07T14:48:50;1.60;99.90
45549;DHT22;31270;48.328;10.096;2023-12-07T14:51:20;1.60;99.90
45549;DHT22;31270;48.328;10.096;2023-12-07T14:53:47;1.60;99.90
45549;DHT22;31270;48.328;10.096;2023-12-07T14:56:12;1.50;99.90
45549;DHT22;31270;48.328;10.096;2023-12-07T14:58:38;1.50;99.90
45549;DHT22;31270;48.328;10.096;2023-12-07T15:01:06;1.40;99.90
45549;DHT22;31270;48.328;10.096;2023-12-07T15:03:32;1.30;99.90
45549;DHT22;31270;48.328;10.096;2023-12-07T15:05:57;1.30;99.90
45549;DHT22;31270;48.328;10.096;2023-12-07T15:08:23;1.30;99.90
45549;DHT22;31270;48.328;10.096;2023-12-07T15:10:49;1.20;99.90
45549;DHT22;31270;48.328;10.096;2023-12-07T15:13:18;1.20;99.90
45549;DHT22;31270;48.328;10.096;2023-12-07T15:15:44;1.20;99.90
45549;DHT22;31270;48.328;10.096;2023-12-07T15:18:10;1.20;99.90
45549;DHT22;31270;48.328;10.096;2023-12-07T15:20:36;1.20;99.90
45549;DHT22;31270;48.328;10.096;2023-12-07T15:23:01;1.10;99.90
45549;DHT22;31270;48.328;10.096;2023-12-07T15:25:28;1.00;99.90
45549;DHT22;31270;48.328;10.096;2023-12-07T15:27:54;1.00;99.90
45549;DHT22;31270;48.328;10.096;2023-12-07T15:30:20;1.00;99.90